createdAt,value
2023-03-15T00:00:19.601Z,95206.81
2023-03-15T00:02:46.179Z,95192.72
2023-03-15T00:05:15.668Z,95196.66
2023-03-15T00:07:42.120Z,95161.34
2023-03-15T00:10:08.992Z,95200.09
2023-03-15T00:12:35.434Z,95194.88
2023-03-15T00:15:01.993Z,95195.91
2023-03-15T00:17:28.399Z,95188.09
2023-03-15T00:19:54.892Z,95214.22
2023-03-15T00:22:23.199Z,95209.25
2023-03-15T00:24:49.769Z,95216.56
2023-03-15T00:27:16.186Z,95202.97
2023-03-15T00:29:42.656Z,95215.28
2023-03-15T00:32:09.502Z,95212.63
2023-03-15T00:34:36.013Z,95221.72
2023-03-15T00:37:02.467Z,95229.69
2023-03-15T00:39:29.180Z,95222.00
2023-03-15T00:41:56.927Z,95228.41
2023-03-15T00:44:24.499Z,95256.09
2023-03-15T00:46:51.248Z,95281.06
2023-03-15T00:49:18.281Z,95276.19
2023-03-15T00:51:44.737Z,95259.53
2023-03-15T00:54:13.789Z,95290.56
2023-03-15T00:56:41.299Z,95297.88
2023-03-15T00:59:08.577Z,95276.91
2023-03-15T01:01:35.225Z,95273.63
2023-03-15T01:04:04.090Z,95272.66
2023-03-15T01:06:30.608Z,95275.97
2023-03-15T01:08:58.999Z,95276.44
2023-03-15T01:11:27.515Z,95273.41
2023-03-15T01:13:55.866Z,95275.75
2023-03-15T01:16:22.767Z,95241.97
2023-03-15T01:18:51.464Z,95251.13
2023-03-15T01:21:20.460Z,95239.78
2023-03-15T01:23:47.973Z,95256.97
2023-03-15T01:26:16.046Z,95238.13
2023-03-15T01:28:43.756Z,95252.13
2023-03-15T01:31:18.784Z,95240.88
2023-03-15T01:33:45.630Z,95222.44
2023-03-15T01:36:13.348Z,95187.88
2023-03-15T01:38:41.021Z,95229.94
2023-03-15T01:41:08.073Z,95251.00
2023-03-15T01:43:34.631Z,95244.94
2023-03-15T01:46:07.606Z,95252.72
2023-03-15T01:48:44.956Z,95234.84
2023-03-15T01:51:22.440Z,95238.16
2023-03-15T01:54:16.489Z,95254.06
2023-03-15T01:56:49.518Z,95269.56
2023-03-15T01:59:29.740Z,95271.50
2023-03-15T02:01:57.066Z,95288.81
2023-03-15T02:04:35.528Z,95278.50
2023-03-15T02:07:03.884Z,95264.72
2023-03-15T02:09:42.391Z,95298.09
2023-03-15T02:12:10.630Z,95284.63
2023-03-15T02:14:37.113Z,95278.50
2023-03-15T02:17:06.048Z,95282.03
2023-03-15T02:19:52.972Z,95268.44
2023-03-15T02:22:38.245Z,95288.09
2023-03-15T02:25:26.542Z,95295.50
2023-03-15T02:27:54.452Z,95307.16
2023-03-15T02:30:20.933Z,95318.53
2023-03-15T02:32:47.612Z,95298.34
2023-03-15T02:35:23.508Z,95316.47
2023-03-15T02:37:53.489Z,95320.09
2023-03-15T02:40:22.358Z,95328.22
2023-03-15T02:42:53.784Z,95337.66
2023-03-15T02:45:21.404Z,95356.44
2023-03-15T02:47:49.473Z,95343.00
2023-03-15T02:50:16.222Z,95314.78
2023-03-15T02:52:42.744Z,95384.38
2023-03-15T02:55:09.410Z,95402.31
2023-03-15T02:57:36.408Z,95412.81
2023-03-15T03:00:14.125Z,95400.34
2023-03-15T03:02:42.615Z,95399.06
2023-03-15T03:05:12.148Z,95430.28
2023-03-15T03:07:39.303Z,95442.88
2023-03-15T03:10:07.903Z,95446.03
2023-03-15T03:12:44.408Z,95477.72
2023-03-15T03:15:11.565Z,95494.00
2023-03-15T03:17:38.232Z,95491.25
2023-03-15T03:20:10.371Z,95492.13
2023-03-15T03:22:41.970Z,95514.41
2023-03-15T03:25:12.137Z,95513.34
2023-03-15T03:27:40.670Z,95532.31
2023-03-15T03:30:12.446Z,95541.81
2023-03-15T03:32:42.483Z,95532.88
2023-03-15T03:35:09.772Z,95564.03
2023-03-15T03:37:36.340Z,95536.66
2023-03-15T03:40:25.519Z,95552.22
2023-03-15T03:42:52.095Z,95569.16
2023-03-15T03:45:19.900Z,95571.00
2023-03-15T03:47:51.622Z,95558.78
2023-03-15T03:50:18.256Z,95591.66
2023-03-15T03:52:44.721Z,95596.38
2023-03-15T03:55:18.230Z,95593.59
2023-03-15T03:57:44.808Z,95608.84
2023-03-15T04:00:19.181Z,95621.84
2023-03-15T04:02:45.895Z,95621.84
2023-03-15T04:05:14.756Z,95622.38
2023-03-15T04:07:41.765Z,95642.25
2023-03-15T04:10:14.721Z,95651.75
2023-03-15T04:12:45.442Z,95661.38
2023-03-15T04:15:13.191Z,95650.75
2023-03-15T04:17:40.131Z,95676.75
2023-03-15T04:20:09.053Z,95684.09
2023-03-15T04:22:38.840Z,95669.84
2023-03-15T04:25:21.010Z,95676.28
2023-03-15T04:28:02.953Z,95652.09
2023-03-15T04:30:42.713Z,95677.53
2023-03-15T04:33:32.051Z,95692.00
2023-03-15T04:36:22.627Z,95699.19
2023-03-15T04:39:07.660Z,95690.47
2023-03-15T04:41:57.518Z,95709.03
2023-03-15T04:44:42.706Z,95706.00
2023-03-15T04:47:33.723Z,95715.03
2023-03-15T04:50:20.219Z,95738.28
2023-03-15T04:53:09.354Z,95730.25
2023-03-15T04:55:46.629Z,95745.59
2023-03-15T04:58:27.407Z,95743.09
2023-03-15T05:01:17.245Z,95759.16
2023-03-15T05:04:09.314Z,95744.31
2023-03-15T05:06:58.678Z,95744.84
2023-03-15T05:09:46.842Z,95766.09
2023-03-15T05:12:22.032Z,95771.06
2023-03-15T05:14:53.851Z,95790.50
2023-03-15T05:17:56.055Z,95774.34
2023-03-15T05:20:52.227Z,95779.97
2023-03-15T05:23:35.500Z,95795.72
2023-03-15T05:26:20.637Z,95795.38
2023-03-15T05:29:07.349Z,95814.88
2023-03-15T05:31:54.090Z,95818.28
2023-03-15T05:34:32.359Z,95799.94
2023-03-15T05:37:06.541Z,95833.59
2023-03-15T05:39:47.133Z,95790.28
2023-03-15T05:42:36.460Z,95831.81
2023-03-15T05:45:32.316Z,95837.00
2023-03-15T05:48:07.156Z,95839.09
2023-03-15T05:50:54.087Z,95842.00
2023-03-15T05:53:38.132Z,95867.88
2023-03-15T05:56:42.959Z,95863.84
2023-03-15T05:59:23.230Z,95863.75
2023-03-15T06:02:07.854Z,95840.19
2023-03-15T06:04:42.540Z,95869.19
2023-03-15T06:07:11.424Z,95870.31
2023-03-15T06:09:38.262Z,95877.72
2023-03-15T06:12:05.555Z,95896.75
2023-03-15T06:14:32.086Z,95853.47
2023-03-15T06:17:03.862Z,95890.03
2023-03-15T06:19:30.974Z,95904.53
2023-03-15T06:21:57.420Z,95915.94
2023-03-15T06:24:38.306Z,95916.94
2023-03-15T06:27:04.941Z,95912.59
2023-03-15T06:29:33.903Z,95901.41
2023-03-15T06:32:00.404Z,95901.06
2023-03-15T06:34:27.929Z,95877.25
2023-03-15T06:36:55.857Z,95923.56
2023-03-15T06:39:23.406Z,95889.09
2023-03-15T06:41:53.429Z,95922.47
2023-03-15T06:44:21.605Z,95874.81
2023-03-15T06:46:53.184Z,95892.56
2023-03-15T06:49:19.701Z,95916.78
2023-03-15T06:51:46.229Z,95899.34
2023-03-15T06:54:12.730Z,95941.88
2023-03-15T06:56:39.305Z,95923.84
2023-03-15T06:59:05.834Z,95902.13
2023-03-15T07:01:32.385Z,95897.31
2023-03-15T07:03:58.919Z,95936.53
2023-03-15T07:06:27.521Z,95911.38
2023-03-15T07:08:54.230Z,95846.06
2023-03-15T07:11:20.908Z,95944.91
2023-03-15T07:13:47.402Z,95836.53
2023-03-15T07:16:13.909Z,95946.31
2023-03-15T07:18:40.546Z,95933.66
2023-03-15T07:21:08.119Z,95951.09
2023-03-15T07:23:34.832Z,95924.03
2023-03-15T07:26:01.336Z,95956.13
2023-03-15T07:28:28.570Z,95980.06
2023-03-15T07:31:03.649Z,95954.22
2023-03-15T07:33:31.970Z,95976.78
2023-03-15T07:35:58.573Z,95954.25
2023-03-15T07:38:28.772Z,95983.72
2023-03-15T07:40:55.906Z,95895.06
2023-03-15T07:43:22.651Z,95985.09
2023-03-15T07:45:51.048Z,95969.28
2023-03-15T07:48:17.537Z,95942.81
2023-03-15T07:50:45.294Z,95919.91
2023-03-15T07:53:12.084Z,95979.72
2023-03-15T07:55:38.597Z,95976.38
2023-03-15T07:58:05.877Z,95917.53
2023-03-15T08:00:32.875Z,95915.38
2023-03-15T08:02:59.826Z,95978.13
2023-03-15T08:05:28.929Z,95958.06
2023-03-15T08:07:56.600Z,95990.50
2023-03-15T08:10:23.169Z,95960.47
2023-03-15T08:12:49.701Z,95972.91
2023-03-15T08:15:16.522Z,95985.66
2023-03-15T08:17:48.110Z,95979.75
2023-03-15T08:20:17.643Z,95976.53
2023-03-15T08:22:45.870Z,95960.63
2023-03-15T08:25:15.288Z,95983.59
2023-03-15T08:27:42.150Z,95923.22
2023-03-15T08:30:12.438Z,95989.59
2023-03-15T08:32:44.023Z,95937.16
2023-03-15T08:35:15.828Z,95989.56
2023-03-15T08:37:46.950Z,95990.38
2023-03-15T08:40:15.765Z,95992.19
2023-03-15T08:42:42.325Z,95963.69
2023-03-15T08:45:09.363Z,95977.59
2023-03-15T08:47:36.238Z,95967.28
2023-03-15T08:50:05.522Z,95987.03
2023-03-15T08:52:32.836Z,95969.81
2023-03-15T08:54:59.436Z,95964.25
2023-03-15T08:57:26.537Z,95976.25
2023-03-15T08:59:53.891Z,95970.00
2023-03-15T09:02:20.504Z,95962.09
2023-03-15T09:04:47.252Z,95957.38
2023-03-15T09:07:13.747Z,95959.28
2023-03-15T09:09:40.232Z,95981.00
2023-03-15T09:12:06.797Z,95979.88
2023-03-15T09:14:33.446Z,95980.09
2023-03-15T09:16:59.913Z,95980.06
2023-03-15T09:19:26.337Z,95921.63
2023-03-15T09:21:52.827Z,95951.78
2023-03-15T09:24:19.345Z,95964.13
2023-03-15T09:26:45.774Z,95905.44
2023-03-15T09:29:12.222Z,95898.00
2023-03-15T09:31:38.653Z,95999.34
2023-03-15T09:34:05.749Z,95910.84
2023-03-15T09:36:33.051Z,95983.63
2023-03-15T09:39:01.546Z,95980.25
2023-03-15T09:41:56.407Z,95988.88
2023-03-15T09:44:34.914Z,95993.56
2023-03-15T09:47:14.621Z,95992.53
2023-03-15T09:49:45.790Z,95991.72
2023-03-15T09:52:39.593Z,95973.56
2023-03-15T09:55:23.862Z,96007.91
2023-03-15T09:57:59.784Z,95995.00
2023-03-15T10:00:43.456Z,96002.47
2023-03-15T10:03:21.468Z,95992.53
2023-03-15T10:05:55.658Z,96023.63
2023-03-15T10:08:22.201Z,95987.59
2023-03-15T10:11:03.879Z,96006.03
2023-03-15T10:13:45.580Z,96021.66
2023-03-15T10:16:29.572Z,96004.41
2023-03-15T10:19:04.968Z,96019.00
2023-03-15T10:21:49.816Z,96017.38
2023-03-15T10:24:20.575Z,95990.69
2023-03-15T10:26:50.318Z,95983.84
2023-03-15T10:29:20.853Z,95977.91
2023-03-15T10:31:47.592Z,95985.00
2023-03-15T10:34:15.895Z,96004.94
2023-03-15T10:36:49.236Z,95973.19
2023-03-15T10:39:16.645Z,95975.31
2023-03-15T10:41:46.481Z,95987.38
2023-03-15T10:44:16.515Z,96013.38
2023-03-15T10:46:43.120Z,95995.72
2023-03-15T10:49:15.421Z,95983.94
2023-03-15T10:51:44.393Z,95977.47
2023-03-15T10:54:17.703Z,95975.09
2023-03-15T10:56:50.905Z,95969.31
2023-03-15T10:59:26.379Z,95987.75
2023-03-15T11:02:07.865Z,95989.84
2023-03-15T11:04:34.603Z,95980.94
2023-03-15T11:07:03.715Z,95981.47
2023-03-15T11:09:42.602Z,95990.50
2023-03-15T11:12:30.178Z,95979.38
2023-03-15T11:15:04.292Z,95979.34
2023-03-15T11:17:34.502Z,95961.28
2023-03-15T11:20:15.964Z,95969.59
2023-03-15T11:22:42.822Z,95940.34
2023-03-15T11:25:18.041Z,95972.94
2023-03-15T11:27:47.006Z,95953.69
2023-03-15T11:30:15.876Z,95959.75
2023-03-15T11:32:43.583Z,95960.19
2023-03-15T11:35:15.279Z,95980.34
2023-03-15T11:37:58.506Z,95987.94
2023-03-15T11:40:43.601Z,95963.13
2023-03-15T11:43:42.094Z,95976.97
2023-03-15T11:46:27.309Z,95954.25
2023-03-15T11:49:37.464Z,95956.22
2023-03-15T11:52:04.944Z,95958.16
2023-03-15T11:54:32.243Z,95975.00
2023-03-15T11:57:05.257Z,95966.88
2023-03-15T11:59:36.979Z,95970.47
2023-03-15T12:02:09.687Z,95949.66
2023-03-15T12:04:36.309Z,95957.16
2023-03-15T12:07:26.067Z,95961.97
2023-03-15T12:09:56.224Z,95961.31
2023-03-15T12:12:25.927Z,95950.97
2023-03-15T12:15:03.901Z,95959.28
2023-03-15T12:17:42.550Z,95922.19
2023-03-15T12:20:12.537Z,95945.31
2023-03-15T12:22:48.955Z,95935.69
2023-03-15T12:25:55.682Z,95936.38
2023-03-15T12:28:28.637Z,95930.84
2023-03-15T12:30:59.070Z,95925.97
2023-03-15T12:33:28.085Z,95935.84
2023-03-15T12:36:05.933Z,95930.06
2023-03-15T12:38:38.180Z,95895.09
2023-03-15T12:41:28.897Z,95913.94
2023-03-15T12:44:26.015Z,95928.88
2023-03-15T12:46:52.541Z,95928.75
2023-03-15T12:49:25.001Z,95935.19
2023-03-15T12:51:58.193Z,95920.06
2023-03-15T12:54:34.643Z,95902.94
2023-03-15T12:57:03.753Z,95890.19
2023-03-15T12:59:38.045Z,95889.25
2023-03-15T13:02:43.314Z,95920.91
2023-03-15T13:05:16.558Z,95926.59
2023-03-15T13:07:57.318Z,95919.44
2023-03-15T13:10:36.236Z,95917.56
2023-03-15T13:13:11.699Z,95934.84
2023-03-15T13:16:03.952Z,95876.66
2023-03-15T13:18:36.517Z,95911.22
2023-03-15T13:21:15.094Z,95935.16
2023-03-15T13:23:50.692Z,95919.97
2023-03-15T13:26:46.370Z,95927.69
2023-03-15T13:29:21.900Z,95912.22
2023-03-15T13:32:11.517Z,95895.38
2023-03-15T13:34:38.272Z,95918.88
2023-03-15T13:37:14.196Z,95929.69
2023-03-15T13:39:53.909Z,95918.69
2023-03-15T13:42:24.107Z,95926.75
2023-03-15T13:45:05.791Z,95916.31
2023-03-15T13:47:34.173Z,95909.63
2023-03-15T13:50:05.778Z,95929.28
2023-03-15T13:52:32.652Z,95906.97
2023-03-15T13:54:59.714Z,95914.13
2023-03-15T13:57:26.740Z,95899.09
2023-03-15T14:00:10.420Z,95885.41
2023-03-15T14:02:42.915Z,95898.81
2023-03-15T14:05:27.019Z,95923.53
2023-03-15T14:07:59.153Z,95924.38
2023-03-15T14:10:30.894Z,95908.88
2023-03-15T14:12:59.598Z,95902.44
2023-03-15T14:15:29.257Z,95930.22
2023-03-15T14:18:14.971Z,95936.50
2023-03-15T14:20:44.791Z,95938.53
2023-03-15T14:23:14.699Z,95940.19
2023-03-15T14:25:41.873Z,95926.44
2023-03-15T14:28:18.562Z,95922.34
2023-03-15T14:30:54.704Z,95940.50
2023-03-15T14:33:30.136Z,95904.81
2023-03-15T14:36:01.378Z,95944.59
2023-03-15T14:38:33.747Z,95942.38
2023-03-15T14:41:32.974Z,95925.97
2023-03-15T14:44:05.314Z,95923.94
2023-03-15T14:46:31.923Z,95850.50
2023-03-15T14:48:58.480Z,95922.03
2023-03-15T14:51:26.161Z,95905.72
2023-03-15T14:53:56.222Z,95925.22
2023-03-15T14:56:26.166Z,95890.81
2023-03-15T14:58:55.555Z,95872.41
2023-03-15T15:01:25.617Z,95932.78
2023-03-15T15:03:58.732Z,95898.81
2023-03-15T15:06:28.051Z,95910.28
2023-03-15T15:08:58.784Z,95885.69
2023-03-15T15:11:26.464Z,95933.53
2023-03-15T15:13:53.259Z,95910.38
2023-03-15T15:16:19.941Z,95827.22
2023-03-15T15:18:46.442Z,95822.97
2023-03-15T15:21:21.614Z,95934.28
2023-03-15T15:23:57.934Z,95912.69
2023-03-15T15:26:27.927Z,95934.50
2023-03-15T15:28:54.714Z,95937.88
2023-03-15T15:31:23.400Z,95928.78
2023-03-15T15:33:53.581Z,95930.91
2023-03-15T15:36:31.917Z,95914.66
2023-03-15T15:39:06.375Z,95880.66
2023-03-15T15:41:33.835Z,95943.00
2023-03-15T15:44:00.739Z,95919.88
2023-03-15T15:46:27.516Z,95945.59
2023-03-15T15:48:54.467Z,95932.84
2023-03-15T15:51:26.445Z,95962.34
2023-03-15T15:53:55.521Z,95957.94
2023-03-15T15:56:26.851Z,95954.81
2023-03-15T15:58:53.470Z,95973.88
2023-03-15T16:01:19.967Z,95963.28
2023-03-15T16:03:46.473Z,95988.38
2023-03-15T16:06:21.296Z,95993.09
2023-03-15T16:08:50.832Z,95974.03
2023-03-15T16:11:18.200Z,96000.09
2023-03-15T16:13:45.882Z,95964.63
2023-03-15T16:16:17.453Z,95999.69
2023-03-15T16:18:44.870Z,95981.34
2023-03-15T16:21:15.944Z,95987.66
2023-03-15T16:23:43.716Z,96018.31
2023-03-15T16:26:15.218Z,96010.25
2023-03-15T16:28:41.800Z,95983.13
2023-03-15T16:31:08.678Z,95948.00
2023-03-15T16:33:35.467Z,96031.56
2023-03-15T16:36:02.879Z,96029.19
2023-03-15T16:38:32.304Z,96037.97
2023-03-15T16:41:00.164Z,96003.84
2023-03-15T16:43:27.213Z,96008.91
2023-03-15T16:45:53.822Z,96001.00
2023-03-15T16:48:20.806Z,96018.41
2023-03-15T16:50:48.633Z,96026.81
2023-03-15T16:53:15.509Z,96024.91
2023-03-15T16:55:42.014Z,96038.13
2023-03-15T16:58:16.396Z,96041.78
2023-03-15T17:00:47.949Z,96049.28
2023-03-15T17:03:15.364Z,96005.41
2023-03-15T17:05:44.584Z,96074.38
2023-03-15T17:08:16.099Z,95981.13
2023-03-15T17:10:43.035Z,96003.22
2023-03-15T17:13:13.634Z,96077.84
2023-03-15T17:15:40.336Z,96081.16
2023-03-15T17:18:18.680Z,96093.94
2023-03-15T17:20:48.646Z,96103.09
2023-03-15T17:23:15.851Z,96051.09
2023-03-15T17:25:42.328Z,96076.38
2023-03-15T17:28:08.870Z,96029.94
2023-03-15T17:30:37.234Z,96027.31
2023-03-15T17:33:04.965Z,96124.06
2023-03-15T17:35:43.834Z,96120.97
2023-03-15T17:38:21.703Z,96112.25
2023-03-15T17:40:48.678Z,96107.63
2023-03-15T17:43:16.888Z,96128.25
2023-03-15T17:45:43.880Z,96123.16
2023-03-15T17:48:11.058Z,96099.53
2023-03-15T17:50:38.395Z,96120.13
2023-03-15T17:53:16.783Z,96121.84
2023-03-15T17:55:44.093Z,96132.75
2023-03-15T17:58:22.582Z,96127.06
2023-03-15T18:00:56.133Z,96123.22
2023-03-15T18:03:23.465Z,96137.03
2023-03-15T18:05:49.956Z,96043.94
2023-03-15T18:08:19.211Z,96127.97
2023-03-15T18:10:46.942Z,96127.97
2023-03-15T18:13:17.203Z,96106.84
2023-03-15T18:15:45.041Z,96131.53
2023-03-15T18:18:11.932Z,96142.88
2023-03-15T18:20:38.640Z,96153.72
2023-03-15T18:23:05.304Z,96161.91
2023-03-15T18:25:34.138Z,96173.50
2023-03-15T18:28:01.037Z,96169.53
2023-03-15T18:30:29.528Z,96157.94
2023-03-15T18:32:56.701Z,96166.78
2023-03-15T18:35:29.545Z,96176.75
2023-03-15T18:37:57.434Z,96146.50
2023-03-15T18:40:26.515Z,96176.59
2023-03-15T18:42:53.243Z,96177.69
2023-03-15T18:45:25.417Z,96182.91
2023-03-15T18:47:52.380Z,96179.50
2023-03-15T18:50:19.771Z,96197.00
2023-03-15T18:52:47.189Z,96192.13
2023-03-15T18:55:16.581Z,96197.25
2023-03-15T18:57:43.217Z,96152.03
2023-03-15T19:00:13.228Z,96166.63
2023-03-15T19:02:45.407Z,96173.09
2023-03-15T19:05:14.027Z,96171.63
2023-03-15T19:07:41.382Z,96198.84
2023-03-15T19:10:13.261Z,96143.84
2023-03-15T19:12:41.060Z,96110.84
2023-03-15T19:15:11.790Z,96205.75
2023-03-15T19:17:38.891Z,96193.28
2023-03-15T19:20:08.149Z,96212.69
2023-03-15T19:22:35.245Z,96204.38
2023-03-15T19:25:01.806Z,96180.22
2023-03-15T19:27:28.492Z,96208.59
2023-03-15T19:29:55.085Z,96202.13
2023-03-15T19:32:21.572Z,96201.69
2023-03-15T19:34:48.159Z,96200.06
2023-03-15T19:37:14.822Z,96196.59
2023-03-15T19:39:41.329Z,96183.41
2023-03-15T19:42:08.118Z,96205.31
2023-03-15T19:44:36.039Z,96177.41
2023-03-15T19:47:02.781Z,96216.97
2023-03-15T19:49:29.215Z,96229.00
2023-03-15T19:51:55.674Z,96220.97
2023-03-15T19:54:22.120Z,96186.47
2023-03-15T19:56:48.871Z,96227.53
2023-03-15T19:59:15.385Z,96240.78
2023-03-15T20:01:42.311Z,96146.56
2023-03-15T20:04:08.888Z,96168.03
2023-03-15T20:06:35.459Z,96235.75
2023-03-15T20:09:02.676Z,96202.41
2023-03-15T20:11:29.329Z,96131.47
2023-03-15T20:13:55.777Z,96251.28
2023-03-15T20:16:22.695Z,96171.66
2023-03-15T20:18:51.278Z,96255.47
2023-03-15T20:21:18.895Z,96178.59
2023-03-15T20:23:45.424Z,96228.84
2023-03-15T20:26:13.923Z,96183.88
2023-03-15T20:28:41.800Z,96264.19
2023-03-15T20:31:13.127Z,96240.00
2023-03-15T20:33:39.926Z,96258.06
2023-03-15T20:36:06.875Z,96224.31
2023-03-15T20:38:34.707Z,96275.38
2023-03-15T20:41:02.343Z,96269.53
2023-03-15T20:43:29.013Z,96267.81
2023-03-15T20:45:56.304Z,96276.06
2023-03-15T20:48:24.740Z,96278.56
2023-03-15T20:50:52.308Z,96183.19
2023-03-15T20:53:19.246Z,96159.56
2023-03-15T20:55:45.764Z,96273.25
2023-03-15T20:58:12.288Z,96294.88
2023-03-15T21:00:44.278Z,96267.06
2023-03-15T21:03:15.899Z,96293.16
2023-03-15T21:05:44.925Z,96289.97
2023-03-15T21:08:13.845Z,96305.00
2023-03-15T21:10:40.410Z,96267.47
2023-03-15T21:13:10.047Z,96286.78
2023-03-15T21:15:51.669Z,96272.69
2023-03-15T21:18:18.169Z,96292.28
2023-03-15T21:20:44.603Z,96278.56
2023-03-15T21:23:11.395Z,96260.25
2023-03-15T21:25:38.158Z,96239.94
2023-03-15T21:28:04.809Z,96271.97
2023-03-15T21:30:32.056Z,96285.28
2023-03-15T21:32:58.658Z,96201.03
2023-03-15T21:35:25.557Z,96284.84
2023-03-15T21:37:52.051Z,96266.41
2023-03-15T21:40:18.517Z,96272.56
2023-03-15T21:42:47.559Z,96290.19
2023-03-15T21:45:14.199Z,96273.00
2023-03-15T21:47:40.779Z,96298.09
2023-03-15T21:50:08.004Z,96290.72
2023-03-15T21:52:34.575Z,96266.19
2023-03-15T21:55:01.095Z,96264.88
2023-03-15T21:57:27.679Z,96280.16
2023-03-15T21:59:54.264Z,96303.28
2023-03-15T22:02:21.961Z,96294.88
2023-03-15T22:04:48.636Z,96277.59
2023-03-15T22:07:15.166Z,96268.09
2023-03-15T22:09:43.042Z,96286.56
2023-03-15T22:12:10.319Z,96292.34
2023-03-15T22:14:36.900Z,96267.97
2023-03-15T22:17:04.626Z,96291.13
2023-03-15T22:19:31.989Z,96286.75
2023-03-15T22:21:58.648Z,96271.84
2023-03-15T22:24:25.342Z,96284.59
2023-03-15T22:26:53.073Z,96292.47
2023-03-15T22:29:20.140Z,96280.41
2023-03-15T22:31:46.656Z,96266.69
2023-03-15T22:34:13.229Z,96281.03
2023-03-15T22:36:39.715Z,96277.16
2023-03-15T22:39:06.415Z,96260.72
2023-03-15T22:41:32.941Z,96267.41
2023-03-15T22:43:59.426Z,96275.31
2023-03-15T22:46:26.985Z,96297.84
2023-03-15T22:48:54.364Z,96292.97
2023-03-15T22:51:21.742Z,96298.03
2023-03-15T22:53:48.208Z,96199.13
2023-03-15T22:56:16.009Z,96194.53
2023-03-15T22:58:42.555Z,96188.72
2023-03-15T23:01:09.981Z,96248.25
2023-03-15T23:03:36.547Z,96284.09
2023-03-15T23:06:04.317Z,96213.09
2023-03-15T23:08:30.911Z,96218.91
2023-03-15T23:10:58.447Z,96310.84
2023-03-15T23:13:25.146Z,96275.25
2023-03-15T23:15:51.616Z,96299.38
2023-03-15T23:18:18.085Z,96285.09
2023-03-15T23:20:44.601Z,96302.09
2023-03-15T23:23:11.095Z,96294.81
2023-03-15T23:25:39.025Z,96200.41
2023-03-15T23:28:07.246Z,96314.22
2023-03-15T23:30:35.883Z,96327.66
2023-03-15T23:33:03.671Z,96304.50
2023-03-15T23:35:31.685Z,96327.03
2023-03-15T23:37:58.291Z,96270.97
2023-03-15T23:40:25.796Z,96298.03
2023-03-15T23:42:58.807Z,96300.47
2023-03-15T23:45:27.900Z,96317.50
2023-03-15T23:47:54.340Z,96277.56
2023-03-15T23:50:25.721Z,96297.88
2023-03-15T23:52:53.453Z,96241.94
2023-03-15T23:55:20.673Z,96318.28
2023-03-15T23:57:47.787Z,96307.59
